sensor_id;sensor_type;location;lat;lon;timestamp;P1;durP1;ratioP1;P2;durP2;ratioP2
7969;SDS011;4030;52.362;9.206;2023-02-28T00:00:28;8.70;;;5.80;;
7969;SDS011;4030;52.362;9.206;2023-02-28T00:02:54;9.20;;;6.10;;
7969;SDS011;4030;52.362;9.206;2023-02-28T00:05:21;8.67;;;6.10;;
7969;SDS011;4030;52.362;9.206;2023-02-28T00:07:49;8.30;;;5.70;;
7969;SDS011;4030;52.362;9.206;2023-02-28T00:12:46;7.47;;;4.90;;
7969;SDS011;4030;52.362;9.206;2023-02-28T00:15:13;7.17;;;5.20;;
7969;SDS011;4030;52.362;9.206;2023-02-28T00:17:39;7.57;;;5.30;;
7969;SDS011;4030;52.362;9.206;2023-02-28T00:20:05;7.70;;;4.90;;
7969;SDS011;4030;52.362;9.206;2023-02-28T00:22:33;6.40;;;4.80;;
7969;SDS011;4030;52.362;9.206;2023-02-28T00:24:59;5.67;;;4.40;;
7969;SDS011;4030;52.362;9.206;2023-02-28T00:27:25;5.53;;;4.47;;
7969;SDS011;4030;52.362;9.206;2023-02-28T00:29:51;6.07;;;4.53;;
7969;SDS011;4030;52.362;9.206;2023-02-28T00:32:19;6.00;;;4.60;;
7969;SDS011;4030;52.362;9.206;2023-02-28T00:34:44;6.03;;;4.40;;
7969;SDS011;4030;52.362;9.206;2023-02-28T00:37:10;5.50;;;4.20;;
7969;SDS011;4030;52.362;9.206;2023-02-28T00:39:37;7.00;;;4.07;;
7969;SDS011;4030;52.362;9.206;2023-02-28T00:42:03;5.07;;;4.13;;
7969;SDS011;4030;52.362;9.206;2023-02-28T00:44:30;5.30;;;3.53;;
7969;SDS011;4030;52.362;9.206;2023-02-28T00:46:56;5.00;;;3.97;;
7969;SDS011;4030;52.362;9.206;2023-02-28T00:49:23;5.47;;;4.10;;
7969;SDS011;4030;52.362;9.206;2023-02-28T00:51:49;5.50;;;3.60;;
7969;SDS011;4030;52.362;9.206;2023-02-28T00:54:15;5.80;;;4.00;;
7969;SDS011;4030;52.362;9.206;2023-02-28T00:56:41;5.83;;;3.87;;
7969;SDS011;4030;52.362;9.206;2023-02-28T00:59:07;5.23;;;3.97;;
7969;SDS011;4030;52.362;9.206;2023-02-28T01:01:33;5.50;;;4.07;;
7969;SDS011;4030;52.362;9.206;2023-02-28T01:03:59;5.77;;;4.00;;
7969;SDS011;4030;52.362;9.206;2023-02-28T01:06:25;4.73;;;3.97;;
7969;SDS011;4030;52.362;9.206;2023-02-28T01:08:50;4.83;;;4.07;;
7969;SDS011;4030;52.362;9.206;2023-02-28T01:11:17;5.03;;;3.80;;
7969;SDS011;4030;52.362;9.206;2023-02-28T01:13:43;5.13;;;3.93;;
7969;SDS011;4030;52.362;9.206;2023-02-28T01:16:11;3.90;;;3.30;;
7969;SDS011;4030;52.362;9.206;2023-02-28T01:18:38;4.30;;;3.80;;
7969;SDS011;4030;52.362;9.206;2023-02-28T01:21:05;4.37;;;3.57;;
7969;SDS011;4030;52.362;9.206;2023-02-28T01:23:32;4.30;;;3.40;;
7969;SDS011;4030;52.362;9.206;2023-02-28T01:26:05;4.40;;;3.70;;
7969;SDS011;4030;52.362;9.206;2023-02-28T01:28:33;4.90;;;3.63;;
7969;SDS011;4030;52.362;9.206;2023-02-28T01:30:59;4.53;;;3.40;;
7969;SDS011;4030;52.362;9.206;2023-02-28T01:33:25;4.90;;;3.37;;
7969;SDS011;4030;52.362;9.206;2023-02-28T01:36:01;5.27;;;3.70;;
7969;SDS011;4030;52.362;9.206;2023-02-28T01:38:33;4.50;;;3.23;;
7969;SDS011;4030;52.362;9.206;2023-02-28T01:40:59;3.83;;;3.47;;
7969;SDS011;4030;52.362;9.206;2023-02-28T01:43:26;3.73;;;2.97;;
7969;SDS011;4030;52.362;9.206;2023-02-28T01:45:56;3.90;;;3.13;;
7969;SDS011;4030;52.362;9.206;2023-02-28T01:48:25;4.53;;;3.30;;
7969;SDS011;4030;52.362;9.206;2023-02-28T01:50:58;4.30;;;3.40;;
7969;SDS011;4030;52.362;9.206;2023-02-28T01:53:34;3.97;;;3.10;;
7969;SDS011;4030;52.362;9.206;2023-02-28T01:56:06;4.27;;;2.90;;
7969;SDS011;4030;52.362;9.206;2023-02-28T01:58:34;3.80;;;3.13;;
7969;SDS011;4030;52.362;9.206;2023-02-28T02:01:01;3.60;;;2.83;;
7969;SDS011;4030;52.362;9.206;2023-02-28T02:03:27;4.50;;;3.17;;
7969;SDS011;4030;52.362;9.206;2023-02-28T02:05:56;4.00;;;3.20;;
7969;SDS011;4030;52.362;9.206;2023-02-28T02:08:23;4.50;;;3.10;;
7969;SDS011;4030;52.362;9.206;2023-02-28T02:10:54;4.20;;;3.27;;
7969;SDS011;4030;52.362;9.206;2023-02-28T02:19:24;4.07;;;3.00;;
7969;SDS011;4030;52.362;9.206;2023-02-28T02:34:46;3.70;;;3.30;;
7969;SDS011;4030;52.362;9.206;2023-02-28T02:41:01;3.53;;;3.20;;
7969;SDS011;4030;52.362;9.206;2023-02-28T02:46:18;4.10;;;3.70;;
7969;SDS011;4030;52.362;9.206;2023-02-28T02:48:50;4.37;;;3.50;;
7969;SDS011;4030;52.362;9.206;2023-02-28T02:51:20;4.53;;;3.83;;
7969;SDS011;4030;52.362;9.206;2023-02-28T02:54:02;4.20;;;3.60;;
7969;SDS011;4030;52.362;9.206;2023-02-28T02:56:40;4.10;;;3.57;;
7969;SDS011;4030;52.362;9.206;2023-02-28T02:59:10;4.60;;;3.90;;
7969;SDS011;4030;52.362;9.206;2023-02-28T03:01:39;6.10;;;4.00;;
7969;SDS011;4030;52.362;9.206;2023-02-28T03:04:11;4.37;;;3.60;;
7969;SDS011;4030;52.362;9.206;2023-02-28T03:06:41;6.40;;;4.00;;
7969;SDS011;4030;52.362;9.206;2023-02-28T03:09:07;4.90;;;3.97;;
7969;SDS011;4030;52.362;9.206;2023-02-28T03:11:34;4.27;;;3.40;;
7969;SDS011;4030;52.362;9.206;2023-02-28T03:17:16;5.30;;;3.77;;
7969;SDS011;4030;52.362;9.206;2023-02-28T03:20:49;4.50;;;3.37;;
7969;SDS011;4030;52.362;9.206;2023-02-28T03:23:48;4.93;;;3.50;;
7969;SDS011;4030;52.362;9.206;2023-02-28T03:26:34;4.13;;;3.50;;
7969;SDS011;4030;52.362;9.206;2023-02-28T03:29:13;4.60;;;3.70;;
7969;SDS011;4030;52.362;9.206;2023-02-28T03:31:50;5.00;;;3.73;;
7969;SDS011;4030;52.362;9.206;2023-02-28T03:34:49;4.53;;;3.53;;
7969;SDS011;4030;52.362;9.206;2023-02-28T03:37:23;4.77;;;3.43;;
7969;SDS011;4030;52.362;9.206;2023-02-28T03:39:53;4.27;;;3.77;;
7969;SDS011;4030;52.362;9.206;2023-02-28T03:42:27;4.07;;;3.40;;
7969;SDS011;4030;52.362;9.206;2023-02-28T03:44:58;5.20;;;3.57;;
7969;SDS011;4030;52.362;9.206;2023-02-28T03:47:35;4.43;;;3.47;;
7969;SDS011;4030;52.362;9.206;2023-02-28T03:50:14;4.37;;;3.43;;
7969;SDS011;4030;52.362;9.206;2023-02-28T03:53:01;5.30;;;3.87;;
7969;SDS011;4030;52.362;9.206;2023-02-28T03:55:43;4.73;;;3.60;;
7969;SDS011;4030;52.362;9.206;2023-02-28T03:58:21;5.33;;;3.80;;
7969;SDS011;4030;52.362;9.206;2023-02-28T04:01:07;5.00;;;3.70;;
7969;SDS011;4030;52.362;9.206;2023-02-28T04:03:49;4.77;;;3.70;;
7969;SDS011;4030;52.362;9.206;2023-02-28T04:06:18;4.10;;;3.70;;
7969;SDS011;4030;52.362;9.206;2023-02-28T04:08:47;5.13;;;4.13;;
7969;SDS011;4030;52.362;9.206;2023-02-28T04:11:23;3.80;;;3.40;;
7969;SDS011;4030;52.362;9.206;2023-02-28T04:13:55;4.10;;;3.23;;
7969;SDS011;4030;52.362;9.206;2023-02-28T04:16:21;5.20;;;3.60;;
7969;SDS011;4030;52.362;9.206;2023-02-28T04:18:47;4.30;;;3.70;;
7969;SDS011;4030;52.362;9.206;2023-02-28T04:21:13;4.60;;;3.97;;
7969;SDS011;4030;52.362;9.206;2023-02-28T04:23:39;4.67;;;3.80;;
7969;SDS011;4030;52.362;9.206;2023-02-28T04:26:05;4.23;;;3.50;;
7969;SDS011;4030;52.362;9.206;2023-02-28T04:28:32;3.93;;;3.37;;
7969;SDS011;4030;52.362;9.206;2023-02-28T04:31:02;5.23;;;3.80;;
7969;SDS011;4030;52.362;9.206;2023-02-28T04:33:30;4.87;;;3.90;;
7969;SDS011;4030;52.362;9.206;2023-02-28T04:36:01;4.87;;;3.77;;
7969;SDS011;4030;52.362;9.206;2023-02-28T04:38:30;4.30;;;3.77;;
7969;SDS011;4030;52.362;9.206;2023-02-28T04:41:01;4.90;;;3.87;;
7969;SDS011;4030;52.362;9.206;2023-02-28T04:43:27;4.50;;;3.37;;
7969;SDS011;4030;52.362;9.206;2023-02-28T04:45:55;4.33;;;3.63;;
7969;SDS011;4030;52.362;9.206;2023-02-28T04:48:22;4.57;;;3.57;;
7969;SDS011;4030;52.362;9.206;2023-02-28T04:50:49;4.57;;;3.67;;
7969;SDS011;4030;52.362;9.206;2023-02-28T04:53:16;4.17;;;3.27;;
7969;SDS011;4030;52.362;9.206;2023-02-28T04:55:42;4.73;;;4.00;;
7969;SDS011;4030;52.362;9.206;2023-02-28T04:58:07;4.77;;;3.47;;
7969;SDS011;4030;52.362;9.206;2023-02-28T05:00:33;4.70;;;3.57;;
7969;SDS011;4030;52.362;9.206;2023-02-28T05:02:59;4.10;;;3.70;;
7969;SDS011;4030;52.362;9.206;2023-02-28T05:05:25;4.03;;;3.30;;
7969;SDS011;4030;52.362;9.206;2023-02-28T05:07:51;5.83;;;3.70;;
7969;SDS011;4030;52.362;9.206;2023-02-28T05:10:18;4.63;;;3.20;;
7969;SDS011;4030;52.362;9.206;2023-02-28T05:12:44;4.83;;;3.53;;
7969;SDS011;4030;52.362;9.206;2023-02-28T05:15:13;4.93;;;3.40;;
7969;SDS011;4030;52.362;9.206;2023-02-28T05:17:41;5.73;;;3.40;;
7969;SDS011;4030;52.362;9.206;2023-02-28T05:20:07;4.27;;;3.17;;
7969;SDS011;4030;52.362;9.206;2023-02-28T05:22:38;4.00;;;3.33;;
7969;SDS011;4030;52.362;9.206;2023-02-28T05:25:05;3.77;;;3.30;;
7969;SDS011;4030;52.362;9.206;2023-02-28T05:27:31;3.83;;;3.40;;
7969;SDS011;4030;52.362;9.206;2023-02-28T05:29:57;3.93;;;3.43;;
7969;SDS011;4030;52.362;9.206;2023-02-28T05:32:24;3.80;;;3.40;;
7969;SDS011;4030;52.362;9.206;2023-02-28T05:34:49;4.17;;;3.60;;
7969;SDS011;4030;52.362;9.206;2023-02-28T05:37:16;4.07;;;3.33;;
7969;SDS011;4030;52.362;9.206;2023-02-28T05:39:42;3.67;;;3.10;;
7969;SDS011;4030;52.362;9.206;2023-02-28T05:42:08;4.40;;;3.57;;
7969;SDS011;4030;52.362;9.206;2023-02-28T05:44:34;4.40;;;3.47;;
7969;SDS011;4030;52.362;9.206;2023-02-28T05:47:01;4.93;;;3.50;;
7969;SDS011;4030;52.362;9.206;2023-02-28T05:49:27;5.07;;;3.50;;
7969;SDS011;4030;52.362;9.206;2023-02-28T05:51:53;4.70;;;3.70;;
7969;SDS011;4030;52.362;9.206;2023-02-28T05:54:18;3.83;;;3.50;;
7969;SDS011;4030;52.362;9.206;2023-02-28T05:56:44;4.63;;;3.63;;
7969;SDS011;4030;52.362;9.206;2023-02-28T05:59:11;3.67;;;3.27;;
7969;SDS011;4030;52.362;9.206;2023-02-28T06:01:41;4.27;;;3.23;;
7969;SDS011;4030;52.362;9.206;2023-02-28T06:04:16;3.43;;;3.00;;
7969;SDS011;4030;52.362;9.206;2023-02-28T06:06:44;4.17;;;3.60;;
7969;SDS011;4030;52.362;9.206;2023-02-28T06:09:11;4.10;;;3.30;;
7969;SDS011;4030;52.362;9.206;2023-02-28T06:11:37;4.00;;;3.47;;
7969;SDS011;4030;52.362;9.206;2023-02-28T06:14:03;4.60;;;3.30;;
7969;SDS011;4030;52.362;9.206;2023-02-28T06:16:30;4.37;;;3.57;;
7969;SDS011;4030;52.362;9.206;2023-02-28T06:18:57;4.23;;;3.20;;
7969;SDS011;4030;52.362;9.206;2023-02-28T06:21:27;4.10;;;3.50;;
7969;SDS011;4030;52.362;9.206;2023-02-28T06:23:53;3.17;;;2.87;;
7969;SDS011;4030;52.362;9.206;2023-02-28T06:26:20;4.77;;;3.10;;
7969;SDS011;4030;52.362;9.206;2023-02-28T06:28:46;4.93;;;3.17;;
7969;SDS011;4030;52.362;9.206;2023-02-28T06:31:13;3.30;;;3.00;;
7969;SDS011;4030;52.362;9.206;2023-02-28T06:33:41;3.00;;;2.37;;
7969;SDS011;4030;52.362;9.206;2023-02-28T06:36:08;3.53;;;3.07;;
7969;SDS011;4030;52.362;9.206;2023-02-28T06:38:35;5.07;;;3.10;;
7969;SDS011;4030;52.362;9.206;2023-02-28T06:41:02;3.80;;;2.70;;
7969;SDS011;4030;52.362;9.206;2023-02-28T06:43:29;3.47;;;2.83;;
7969;SDS011;4030;52.362;9.206;2023-02-28T06:45:58;2.93;;;2.63;;
7969;SDS011;4030;52.362;9.206;2023-02-28T06:48:26;3.47;;;3.00;;
7969;SDS011;4030;52.362;9.206;2023-02-28T06:51:00;3.27;;;2.83;;
7969;SDS011;4030;52.362;9.206;2023-02-28T06:53:38;3.40;;;2.87;;
7969;SDS011;4030;52.362;9.206;2023-02-28T06:56:05;4.40;;;3.10;;
7969;SDS011;4030;52.362;9.206;2023-02-28T06:58:36;4.07;;;2.60;;
7969;SDS011;4030;52.362;9.206;2023-02-28T07:01:03;3.57;;;2.80;;
7969;SDS011;4030;52.362;9.206;2023-02-28T07:03:30;3.23;;;2.60;;
7969;SDS011;4030;52.362;9.206;2023-02-28T07:05:56;3.13;;;2.70;;
7969;SDS011;4030;52.362;9.206;2023-02-28T07:08:25;3.23;;;2.93;;
7969;SDS011;4030;52.362;9.206;2023-02-28T07:10:54;3.20;;;2.80;;
7969;SDS011;4030;52.362;9.206;2023-02-28T07:13:21;3.57;;;2.73;;
7969;SDS011;4030;52.362;9.206;2023-02-28T07:15:58;4.37;;;2.57;;
7969;SDS011;4030;52.362;9.206;2023-02-28T07:18:29;3.90;;;2.80;;
7969;SDS011;4030;52.362;9.206;2023-02-28T07:20:56;3.23;;;2.80;;
7969;SDS011;4030;52.362;9.206;2023-02-28T07:23:22;2.90;;;2.60;;
7969;SDS011;4030;52.362;9.206;2023-02-28T07:25:48;3.47;;;2.50;;
7969;SDS011;4030;52.362;9.206;2023-02-28T07:28:15;5.57;;;2.80;;
7969;SDS011;4030;52.362;9.206;2023-02-28T07:30:41;3.63;;;2.77;;
7969;SDS011;4030;52.362;9.206;2023-02-28T07:33:07;4.57;;;3.10;;
7969;SDS011;4030;52.362;9.206;2023-02-28T07:35:33;4.73;;;2.93;;
7969;SDS011;4030;52.362;9.206;2023-02-28T07:37:59;5.03;;;3.63;;
7969;SDS011;4030;52.362;9.206;2023-02-28T07:40:25;4.30;;;3.70;;
7969;SDS011;4030;52.362;9.206;2023-02-28T07:42:51;4.47;;;3.50;;
7969;SDS011;4030;52.362;9.206;2023-02-28T07:45:17;4.97;;;3.30;;
7969;SDS011;4030;52.362;9.206;2023-02-28T07:47:44;4.57;;;3.73;;
7969;SDS011;4030;52.362;9.206;2023-02-28T07:50:11;4.03;;;3.40;;
7969;SDS011;4030;52.362;9.206;2023-02-28T07:52:39;4.13;;;3.40;;
7969;SDS011;4030;52.362;9.206;2023-02-28T07:55:06;3.57;;;3.17;;
7969;SDS011;4030;52.362;9.206;2023-02-28T07:57:33;4.30;;;3.33;;
7969;SDS011;4030;52.362;9.206;2023-02-28T07:59:59;4.03;;;3.47;;
7969;SDS011;4030;52.362;9.206;2023-02-28T08:02:26;3.50;;;3.07;;
7969;SDS011;4030;52.362;9.206;2023-02-28T08:04:52;3.77;;;3.40;;
7969;SDS011;4030;52.362;9.206;2023-02-28T08:07:18;4.37;;;3.10;;
7969;SDS011;4030;52.362;9.206;2023-02-28T08:09:44;3.87;;;3.10;;
7969;SDS011;4030;52.362;9.206;2023-02-28T08:12:10;3.87;;;3.03;;
7969;SDS011;4030;52.362;9.206;2023-02-28T08:14:36;4.33;;;3.20;;
7969;SDS011;4030;52.362;9.206;2023-02-28T08:17:03;3.67;;;2.90;;
7969;SDS011;4030;52.362;9.206;2023-02-28T08:19:29;4.00;;;3.27;;
7969;SDS011;4030;52.362;9.206;2023-02-28T08:21:55;3.57;;;2.80;;
7969;SDS011;4030;52.362;9.206;2023-02-28T08:24:21;4.47;;;3.63;;
7969;SDS011;4030;52.362;9.206;2023-02-28T08:26:47;4.20;;;3.03;;
7969;SDS011;4030;52.362;9.206;2023-02-28T08:29:13;4.33;;;3.30;;
7969;SDS011;4030;52.362;9.206;2023-02-28T08:31:39;3.50;;;3.20;;
7969;SDS011;4030;52.362;9.206;2023-02-28T08:34:05;4.93;;;3.57;;
7969;SDS011;4030;52.362;9.206;2023-02-28T08:36:32;3.70;;;2.90;;
7969;SDS011;4030;52.362;9.206;2023-02-28T08:38:58;4.10;;;3.40;;
7969;SDS011;4030;52.362;9.206;2023-02-28T08:41:25;4.47;;;3.33;;
7969;SDS011;4030;52.362;9.206;2023-02-28T08:43:51;4.77;;;3.60;;
7969;SDS011;4030;52.362;9.206;2023-02-28T08:46:18;3.97;;;3.40;;
7969;SDS011;4030;52.362;9.206;2023-02-28T08:48:44;4.13;;;3.30;;
7969;SDS011;4030;52.362;9.206;2023-02-28T08:51:11;4.37;;;3.50;;
7969;SDS011;4030;52.362;9.206;2023-02-28T08:53:43;4.00;;;3.60;;
7969;SDS011;4030;52.362;9.206;2023-02-28T08:56:11;3.50;;;3.17;;
7969;SDS011;4030;52.362;9.206;2023-02-28T08:58:38;3.90;;;3.30;;
7969;SDS011;4030;52.362;9.206;2023-02-28T09:01:09;4.20;;;3.30;;
7969;SDS011;4030;52.362;9.206;2023-02-28T09:03:38;4.23;;;3.33;;
7969;SDS011;4030;52.362;9.206;2023-02-28T09:06:06;4.53;;;3.30;;
7969;SDS011;4030;52.362;9.206;2023-02-28T09:08:32;4.47;;;3.17;;
7969;SDS011;4030;52.362;9.206;2023-02-28T09:10:58;4.30;;;3.20;;
7969;SDS011;4030;52.362;9.206;2023-02-28T09:13:25;3.90;;;3.07;;
7969;SDS011;4030;52.362;9.206;2023-02-28T09:15:51;3.50;;;2.83;;
7969;SDS011;4030;52.362;9.206;2023-02-28T09:18:17;4.30;;;2.97;;
7969;SDS011;4030;52.362;9.206;2023-02-28T09:20:44;3.40;;;2.63;;
7969;SDS011;4030;52.362;9.206;2023-02-28T09:23:10;2.97;;;2.60;;
7969;SDS011;4030;52.362;9.206;2023-02-28T09:25:45;3.13;;;2.73;;
7969;SDS011;4030;52.362;9.206;2023-02-28T09:28:12;3.43;;;2.80;;
7969;SDS011;4030;52.362;9.206;2023-02-28T09:30:40;3.13;;;2.20;;
7969;SDS011;4030;52.362;9.206;2023-02-28T09:33:06;2.67;;;2.43;;
7969;SDS011;4030;52.362;9.206;2023-02-28T09:35:32;3.03;;;2.30;;
7969;SDS011;4030;52.362;9.206;2023-02-28T09:37:58;2.93;;;2.17;;
7969;SDS011;4030;52.362;9.206;2023-02-28T09:40:24;3.13;;;2.10;;
7969;SDS011;4030;52.362;9.206;2023-02-28T09:42:52;2.70;;;1.83;;
7969;SDS011;4030;52.362;9.206;2023-02-28T09:45:33;2.90;;;2.17;;
7969;SDS011;4030;52.362;9.206;2023-02-28T09:48:06;2.47;;;2.13;;
7969;SDS011;4030;52.362;9.206;2023-02-28T09:50:38;3.13;;;2.40;;
7969;SDS011;4030;52.362;9.206;2023-02-28T09:53:19;3.63;;;2.00;;
7969;SDS011;4030;52.362;9.206;2023-02-28T09:56:13;2.67;;;2.17;;
7969;SDS011;4030;52.362;9.206;2023-02-28T09:58:53;3.53;;;2.20;;
7969;SDS011;4030;52.362;9.206;2023-02-28T10:01:37;3.10;;;2.33;;
7969;SDS011;4030;52.362;9.206;2023-02-28T10:04:16;4.50;;;2.77;;
7969;SDS011;4030;52.362;9.206;2023-02-28T10:09:53;5.60;;;3.57;;
7969;SDS011;4030;52.362;9.206;2023-02-28T10:12:22;6.50;;;3.57;;
7969;SDS011;4030;52.362;9.206;2023-02-28T10:14:51;4.90;;;3.17;;
7969;SDS011;4030;52.362;9.206;2023-02-28T10:17:23;4.75;;;3.25;;
7969;SDS011;4030;52.362;9.206;2023-02-28T10:20:04;4.68;;;2.78;;
7969;SDS011;4030;52.362;9.206;2023-02-28T10:22:41;4.40;;;2.78;;
7969;SDS011;4030;52.362;9.206;2023-02-28T10:25:38;4.18;;;2.67;;
7969;SDS011;4030;52.362;9.206;2023-02-28T10:30:37;4.00;;;2.22;;
7969;SDS011;4030;52.362;9.206;2023-02-28T10:33:17;2.90;;;2.00;;
7969;SDS011;4030;52.362;9.206;2023-02-28T10:35:49;3.15;;;2.15;;
7969;SDS011;4030;52.362;9.206;2023-02-28T10:38:21;3.17;;;1.98;;
7969;SDS011;4030;52.362;9.206;2023-02-28T10:40:51;3.10;;;1.83;;
7969;SDS011;4030;52.362;9.206;2023-02-28T10:48:57;2.25;;;1.70;;
7969;SDS011;4030;52.362;9.206;2023-02-28T10:51:34;1.92;;;1.65;;
7969;SDS011;4030;52.362;9.206;2023-02-28T10:54:03;3.53;;;2.00;;
7969;SDS011;4030;52.362;9.206;2023-02-28T10:56:30;2.13;;;1.50;;
7969;SDS011;4030;52.362;9.206;2023-02-28T10:58:58;3.10;;;1.80;;
7969;SDS011;4030;52.362;9.206;2023-02-28T11:04:23;2.25;;;1.55;;
7969;SDS011;4030;52.362;9.206;2023-02-28T11:07:06;3.25;;;1.65;;
7969;SDS011;4030;52.362;9.206;2023-02-28T11:09:53;2.42;;;1.75;;
7969;SDS011;4030;52.362;9.206;2023-02-28T11:12:26;1.92;;;1.40;;
7969;SDS011;4030;52.362;9.206;2023-02-28T11:14:58;2.35;;;1.60;;
7969;SDS011;4030;52.362;9.206;2023-02-28T11:17:45;2.63;;;1.65;;
7969;SDS011;4030;52.362;9.206;2023-02-28T11:20:23;2.58;;;1.63;;
7969;SDS011;4030;52.362;9.206;2023-02-28T11:22:53;3.53;;;1.73;;
7969;SDS011;4030;52.362;9.206;2023-02-28T11:25:22;3.47;;;1.50;;
7969;SDS011;4030;52.362;9.206;2023-02-28T11:27:56;1.80;;;1.52;;
7969;SDS011;4030;52.362;9.206;2023-02-28T11:30:28;2.38;;;1.60;;
7969;SDS011;4030;52.362;9.206;2023-02-28T11:33:18;2.15;;;1.25;;
7969;SDS011;4030;52.362;9.206;2023-02-28T11:35:51;1.88;;;1.45;;
7969;SDS011;4030;52.362;9.206;2023-02-28T11:38:23;2.17;;;1.40;;
7969;SDS011;4030;52.362;9.206;2023-02-28T11:43:46;2.17;;;1.60;;
7969;SDS011;4030;52.362;9.206;2023-02-28T11:46:46;2.40;;;1.42;;
7969;SDS011;4030;52.362;9.206;2023-02-28T11:52:20;3.00;;;2.15;;
7969;SDS011;4030;52.362;9.206;2023-02-28T11:55:01;3.38;;;1.98;;
7969;SDS011;4030;52.362;9.206;2023-02-28T12:01:09;2.15;;;1.70;;
7969;SDS011;4030;52.362;9.206;2023-02-28T12:04:25;1.60;;;1.50;;
7969;SDS011;4030;52.362;9.206;2023-02-28T12:07:17;2.58;;;1.70;;
7969;SDS011;4030;52.362;9.206;2023-02-28T12:12:35;1.67;;;1.40;;
7969;SDS011;4030;52.362;9.206;2023-02-28T12:18:13;1.35;;;1.10;;
7969;SDS011;4030;52.362;9.206;2023-02-28T12:21:05;1.42;;;1.20;;
7969;SDS011;4030;52.362;9.206;2023-02-28T12:26:42;1.88;;;1.10;;
7969;SDS011;4030;52.362;9.206;2023-02-28T12:29:23;1.35;;;1.10;;
7969;SDS011;4030;52.362;9.206;2023-02-28T12:34:49;1.35;;;1.10;;
7969;SDS011;4030;52.362;9.206;2023-02-28T12:40:22;1.30;;;1.00;;
7969;SDS011;4030;52.362;9.206;2023-02-28T12:42:56;1.77;;;0.93;;
7969;SDS011;4030;52.362;9.206;2023-02-28T12:45:48;2.80;;;0.98;;
7969;SDS011;4030;52.362;9.206;2023-02-28T12:48:24;2.35;;;1.10;;
7969;SDS011;4030;52.362;9.206;2023-02-28T12:51:01;2.20;;;1.05;;
7969;SDS011;4030;52.362;9.206;2023-02-28T12:53:32;2.03;;;1.10;;
7969;SDS011;4030;52.362;9.206;2023-02-28T12:56:20;2.22;;;1.20;;
7969;SDS011;4030;52.362;9.206;2023-02-28T13:10:22;4.10;;;1.20;;
7969;SDS011;4030;52.362;9.206;2023-02-28T13:12:50;3.97;;;1.30;;
7969;SDS011;4030;52.362;9.206;2023-02-28T13:15:22;2.10;;;1.15;;
7969;SDS011;4030;52.362;9.206;2023-02-28T13:17:54;4.15;;;1.05;;
7969;SDS011;4030;52.362;9.206;2023-02-28T13:20:24;1.80;;;1.10;;
7969;SDS011;4030;52.362;9.206;2023-02-28T13:22:58;3.13;;;1.05;;
7969;SDS011;4030;52.362;9.206;2023-02-28T13:28:10;1.98;;;1.27;;
7969;SDS011;4030;52.362;9.206;2023-02-28T13:33:27;1.77;;;1.00;;
7969;SDS011;4030;52.362;9.206;2023-02-28T13:36:07;1.58;;;1.00;;
7969;SDS011;4030;52.362;9.206;2023-02-28T13:38:54;3.05;;;1.20;;
7969;SDS011;4030;52.362;9.206;2023-02-28T13:44:36;3.15;;;1.10;;
7969;SDS011;4030;52.362;9.206;2023-02-28T13:49:23;3.38;;;1.38;;
7969;SDS011;4030;52.362;9.206;2023-02-28T13:52:02;3.00;;;1.30;;
7969;SDS011;4030;52.362;9.206;2023-02-28T13:57:49;1.77;;;1.15;;
7969;SDS011;4030;52.362;9.206;2023-02-28T14:06:32;1.75;;;1.00;;
7969;SDS011;4030;52.362;9.206;2023-02-28T14:09:00;2.90;;;0.90;;
7969;SDS011;4030;52.362;9.206;2023-02-28T14:11:41;2.40;;;1.00;;
7969;SDS011;4030;52.362;9.206;2023-02-28T14:14:09;1.45;;;1.02;;
7969;SDS011;4030;52.362;9.206;2023-02-28T14:17:15;1.75;;;0.90;;
7969;SDS011;4030;52.362;9.206;2023-02-28T14:19:43;1.00;;;0.90;;
7969;SDS011;4030;52.362;9.206;2023-02-28T14:25:16;1.10;;;0.70;;
7969;SDS011;4030;52.362;9.206;2023-02-28T14:30:40;1.10;;;0.85;;
7969;SDS011;4030;52.362;9.206;2023-02-28T14:33:25;1.92;;;1.10;;
7969;SDS011;4030;52.362;9.206;2023-02-28T14:36:08;1.58;;;1.20;;
7969;SDS011;4030;52.362;9.206;2023-02-28T14:38:58;4.07;;;1.38;;
7969;SDS011;4030;52.362;9.206;2023-02-28T14:41:46;1.27;;;1.10;;
7969;SDS011;4030;52.362;9.206;2023-02-28T14:44:14;1.88;;;1.30;;
7969;SDS011;4030;52.362;9.206;2023-02-28T14:46:40;2.33;;;1.30;;
7969;SDS011;4030;52.362;9.206;2023-02-28T14:49:18;1.70;;;1.17;;
7969;SDS011;4030;52.362;9.206;2023-02-28T14:52:00;1.92;;;1.30;;
7969;SDS011;4030;52.362;9.206;2023-02-28T14:54:35;1.85;;;1.20;;
7969;SDS011;4030;52.362;9.206;2023-02-28T14:57:03;1.50;;;1.20;;
7969;SDS011;4030;52.362;9.206;2023-02-28T14:59:30;1.45;;;1.10;;
7969;SDS011;4030;52.362;9.206;2023-02-28T15:02:17;1.98;;;1.20;;
7969;SDS011;4030;52.362;9.206;2023-02-28T15:04:58;1.33;;;1.10;;
7969;SDS011;4030;52.362;9.206;2023-02-28T15:07:26;1.40;;;1.20;;
7969;SDS011;4030;52.362;9.206;2023-02-28T15:15:22;3.55;;;2.58;;
7969;SDS011;4030;52.362;9.206;2023-02-28T15:18:00;2.70;;;1.60;;
7969;SDS011;4030;52.362;9.206;2023-02-28T15:20:30;2.28;;;1.40;;
7969;SDS011;4030;52.362;9.206;2023-02-28T15:22:58;2.45;;;1.45;;
7969;SDS011;4030;52.362;9.206;2023-02-28T15:25:24;1.73;;;1.25;;
7969;SDS011;4030;52.362;9.206;2023-02-28T15:27:54;2.67;;;1.83;;
7969;SDS011;4030;52.362;9.206;2023-02-28T15:30:26;2.30;;;1.88;;
7969;SDS011;4030;52.362;9.206;2023-02-28T15:33:18;2.97;;;1.70;;
7969;SDS011;4030;52.362;9.206;2023-02-28T15:35:50;1.70;;;1.38;;
7969;SDS011;4030;52.362;9.206;2023-02-28T15:40:52;2.28;;;1.48;;
7969;SDS011;4030;52.362;9.206;2023-02-28T15:43:27;2.53;;;1.40;;
7969;SDS011;4030;52.362;9.206;2023-02-28T15:46:04;3.28;;;1.45;;
7969;SDS011;4030;52.362;9.206;2023-02-28T15:51:44;2.58;;;1.50;;
7969;SDS011;4030;52.362;9.206;2023-02-28T15:54:14;1.80;;;1.40;;
7969;SDS011;4030;52.362;9.206;2023-02-28T15:56:51;2.25;;;1.42;;
7969;SDS011;4030;52.362;9.206;2023-02-28T15:59:26;1.75;;;1.33;;
7969;SDS011;4030;52.362;9.206;2023-02-28T16:04:35;2.00;;;1.27;;
7969;SDS011;4030;52.362;9.206;2023-02-28T16:07:03;2.67;;;1.63;;
7969;SDS011;4030;52.362;9.206;2023-02-28T16:09:37;3.35;;;1.63;;
7969;SDS011;4030;52.362;9.206;2023-02-28T16:12:03;2.92;;;1.80;;
7969;SDS011;4030;52.362;9.206;2023-02-28T16:14:30;3.10;;;1.70;;
7969;SDS011;4030;52.362;9.206;2023-02-28T16:16:57;2.40;;;1.70;;
7969;SDS011;4030;52.362;9.206;2023-02-28T16:19:30;1.88;;;1.58;;
7969;SDS011;4030;52.362;9.206;2023-02-28T16:21:57;2.05;;;1.48;;
7969;SDS011;4030;52.362;9.206;2023-02-28T16:24:23;2.33;;;1.60;;
7969;SDS011;4030;52.362;9.206;2023-02-28T16:26:49;1.98;;;1.40;;
7969;SDS011;4030;52.362;9.206;2023-02-28T16:29:23;2.58;;;1.60;;
7969;SDS011;4030;52.362;9.206;2023-02-28T16:31:56;2.78;;;1.90;;
7969;SDS011;4030;52.362;9.206;2023-02-28T16:34:22;4.53;;;3.10;;
7969;SDS011;4030;52.362;9.206;2023-02-28T16:36:50;4.85;;;4.35;;
7969;SDS011;4030;52.362;9.206;2023-02-28T16:39:16;6.72;;;4.70;;
7969;SDS011;4030;52.362;9.206;2023-02-28T16:41:45;6.63;;;5.93;;
7969;SDS011;4030;52.362;9.206;2023-02-28T16:44:13;12.30;;;11.00;;
7969;SDS011;4030;52.362;9.206;2023-02-28T16:46:53;11.43;;;10.43;;
7969;SDS011;4030;52.362;9.206;2023-02-28T16:49:18;9.80;;;8.90;;
7969;SDS011;4030;52.362;9.206;2023-02-28T16:51:45;7.68;;;6.93;;
7969;SDS011;4030;52.362;9.206;2023-02-28T16:54:10;6.95;;;6.30;;
7969;SDS011;4030;52.362;9.206;2023-02-28T16:56:36;6.47;;;5.78;;
7969;SDS011;4030;52.362;9.206;2023-02-28T16:59:08;6.30;;;5.70;;
7969;SDS011;4030;52.362;9.206;2023-02-28T17:01:35;6.63;;;5.93;;
7969;SDS011;4030;52.362;9.206;2023-02-28T17:04:01;6.40;;;5.80;;
7969;SDS011;4030;52.362;9.206;2023-02-28T17:06:27;5.93;;;5.32;;
7969;SDS011;4030;52.362;9.206;2023-02-28T17:08:54;5.85;;;5.28;;
7969;SDS011;4030;52.362;9.206;2023-02-28T17:11:24;5.05;;;4.55;;
7969;SDS011;4030;52.362;9.206;2023-02-28T17:13:50;4.90;;;4.40;;
7969;SDS011;4030;52.362;9.206;2023-02-28T17:16:33;5.10;;;4.10;;
7969;SDS011;4030;52.362;9.206;2023-02-28T17:19:02;4.25;;;3.85;;
7969;SDS011;4030;52.362;9.206;2023-02-28T17:21:31;4.15;;;3.67;;
7969;SDS011;4030;52.362;9.206;2023-02-28T17:23:58;4.05;;;3.65;;
7969;SDS011;4030;52.362;9.206;2023-02-28T17:26:24;3.85;;;3.42;;
7969;SDS011;4030;52.362;9.206;2023-02-28T17:28:51;4.63;;;3.72;;
7969;SDS011;4030;52.362;9.206;2023-02-28T17:31:18;4.53;;;3.92;;
7969;SDS011;4030;52.362;9.206;2023-02-28T17:33:44;6.22;;;4.10;;
7969;SDS011;4030;52.362;9.206;2023-02-28T17:36:13;4.35;;;3.95;;
7969;SDS011;4030;52.362;9.206;2023-02-28T17:38:41;4.30;;;3.90;;